createdAt,value
2022-09-21T00:01:20.374Z,100873.91
2022-09-21T00:03:48.340Z,100854.91
2022-09-21T00:06:18.393Z,100868.72
2022-09-21T00:08:46.818Z,100851.47
2022-09-21T00:11:25.136Z,100882.53
2022-09-21T00:13:55.536Z,100880.78
2022-09-21T00:16:23.243Z,100884.22
2022-09-21T00:18:50.421Z,100877.31
2022-09-21T00:21:18.226Z,100860.13
2022-09-21T00:23:45.976Z,100858.38
2022-09-21T00:26:16.746Z,100891.13
2022-09-21T00:28:44.853Z,100855.78
2022-09-21T00:31:14.810Z,100892.84
2022-09-21T00:33:43.922Z,100867.84
2022-09-21T00:36:14.609Z,100889.41
2022-09-21T00:38:41.726Z,100876.44
2022-09-21T00:41:10.482Z,100885.94
2022-09-21T00:43:41.153Z,100891.97
2022-09-21T00:46:28.035Z,100885.94
2022-09-21T00:48:55.271Z,100888.53
2022-09-21T00:51:22.809Z,100841.16
2022-09-21T00:53:54.906Z,100880.78
2022-09-21T00:56:23.588Z,100842.00
2022-09-21T00:58:54.952Z,100889.41
2022-09-21T01:01:22.734Z,100886.81
2022-09-21T01:03:51.848Z,100889.41
2022-09-21T01:06:21.439Z,100892.84
2022-09-21T01:08:53.167Z,100898.03
2022-09-21T01:11:58.018Z,100900.63
2022-09-21T01:14:33.855Z,100899.75
2022-09-21T01:17:17.427Z,100898.03
2022-09-21T01:20:02.723Z,100904.94
2022-09-21T01:23:03.651Z,100896.31
2022-09-21T01:25:59.019Z,100892.88
2022-09-21T01:28:41.530Z,100902.34
2022-09-21T01:31:17.928Z,100889.41
2022-09-21T01:33:51.717Z,100912.69
2022-09-21T01:36:25.107Z,100908.38
2022-09-21T01:38:56.636Z,100910.09
2022-09-21T01:41:26.929Z,100910.97
2022-09-21T01:43:57.790Z,100898.03
2022-09-21T01:46:29.414Z,100920.47
2022-09-21T01:49:06.090Z,100921.34
2022-09-21T01:51:35.514Z,100823.03
2022-09-21T01:54:10.511Z,100918.75
2022-09-21T01:56:47.068Z,100911.84
2022-09-21T01:59:25.781Z,100917.00
2022-09-21T02:01:57.779Z,100927.38
2022-09-21T02:04:25.193Z,100838.53
2022-09-21T02:06:53.592Z,100875.63
2022-09-21T02:09:20.880Z,100915.31
2022-09-21T02:11:48.060Z,100915.31
2022-09-21T02:14:22.722Z,100937.72
2022-09-21T02:17:19.500Z,100934.28
2022-09-21T02:19:56.077Z,100922.22
2022-09-21T02:22:36.397Z,100937.72
2022-09-21T02:25:11.627Z,100930.81
2022-09-21T02:27:56.568Z,100930.81
2022-09-21T02:30:26.094Z,100929.13
2022-09-21T02:33:24.092Z,100930.84
2022-09-21T02:36:00.030Z,100930.00
2022-09-21T02:38:52.561Z,100920.50
2022-09-21T02:41:24.650Z,100931.72
2022-09-21T02:43:57.817Z,100929.97
2022-09-21T02:46:29.583Z,100939.47
2022-09-21T02:49:03.163Z,100939.44
2022-09-21T02:51:35.107Z,100936.03
2022-09-21T02:54:07.132Z,100945.50
2022-09-21T02:56:35.381Z,100934.28
2022-09-21T02:59:04.984Z,100860.97
2022-09-21T03:01:33.343Z,100956.72
2022-09-21T03:04:00.708Z,100926.53
2022-09-21T03:06:28.380Z,100867.03
2022-09-21T03:08:55.514Z,100862.66
2022-09-21T03:11:22.687Z,100960.19
2022-09-21T03:13:50.013Z,100959.31
2022-09-21T03:16:17.274Z,100962.78
2022-09-21T03:18:44.539Z,100948.09
2022-09-21T03:21:12.906Z,100967.09
2022-09-21T03:23:41.326Z,100967.94
2022-09-21T03:26:09.239Z,100970.53
2022-09-21T03:28:36.406Z,100972.25
2022-09-21T03:31:03.777Z,100934.28
2022-09-21T03:33:30.900Z,100917.03
2022-09-21T03:35:58.111Z,100972.25
2022-09-21T03:38:27.079Z,100970.53
2022-09-21T03:40:58.230Z,100967.09
2022-09-21T03:43:26.008Z,100975.69
2022-09-21T03:45:54.062Z,100983.47
2022-09-21T03:48:22.471Z,100968.78
2022-09-21T03:50:49.616Z,100980.88
2022-09-21T03:53:17.391Z,100975.69
2022-09-21T03:55:44.753Z,100970.50
2022-09-21T03:58:11.921Z,100965.34
2022-09-21T04:00:39.643Z,100972.22
2022-09-21T04:03:07.149Z,100965.34
2022-09-21T04:05:34.777Z,100950.66
2022-09-21T04:08:02.479Z,100981.72
2022-09-21T04:10:33.128Z,100987.75
2022-09-21T04:13:04.511Z,100989.50
2022-09-21T04:15:32.076Z,100986.91
2022-09-21T04:17:59.589Z,100988.66
2022-09-21T04:20:27.732Z,100984.31
2022-09-21T04:22:54.856Z,100969.63
2022-09-21T04:25:21.919Z,100944.59
2022-09-21T04:27:49.246Z,100965.31
2022-09-21T04:30:17.289Z,100984.28
2022-09-21T04:32:44.647Z,101002.44
2022-09-21T04:35:11.715Z,100998.09
2022-09-21T04:37:38.891Z,100994.69
2022-09-21T04:40:07.387Z,100961.88
2022-09-21T04:42:34.557Z,100997.25
2022-09-21T04:45:01.637Z,100991.22
2022-09-21T04:47:31.420Z,100998.09
2022-09-21T04:49:58.634Z,100999.00
2022-09-21T04:52:25.963Z,101005.88
2022-09-21T04:54:53.526Z,101004.16
2022-09-21T04:57:21.050Z,100950.63
2022-09-21T04:59:48.295Z,100995.53
2022-09-21T05:02:15.434Z,101008.50
2022-09-21T05:04:43.421Z,101007.63
2022-09-21T05:07:12.648Z,101004.16
2022-09-21T05:09:58.188Z,100989.50
2022-09-21T05:12:25.394Z,101017.13
2022-09-21T05:14:52.657Z,101027.47
2022-09-21T05:17:23.185Z,101005.88
2022-09-21T05:19:50.884Z,100910.91
2022-09-21T05:22:18.486Z,101036.97
2022-09-21T05:24:45.866Z,101030.94
2022-09-21T05:27:13.411Z,101029.19
2022-09-21T05:29:41.639Z,101035.25
2022-09-21T05:32:28.977Z,101034.41
2022-09-21T05:35:01.977Z,101043.03
2022-09-21T05:37:38.737Z,101037.84
2022-09-21T05:40:07.389Z,101037.88
2022-09-21T05:42:35.040Z,101048.22
2022-09-21T05:45:02.634Z,101010.22
2022-09-21T05:47:42.892Z,101048.22
2022-09-21T05:50:47.867Z,101048.22
2022-09-21T05:53:15.072Z,101054.28
2022-09-21T05:56:06.743Z,101045.63
2022-09-21T05:59:06.136Z,101044.78
2022-09-21T06:01:48.504Z,101059.44
2022-09-21T06:04:16.134Z,101040.47
2022-09-21T06:06:43.190Z,101043.03
2022-09-21T06:09:10.461Z,101060.28
2022-09-21T06:11:37.887Z,100999.00
2022-09-21T06:14:05.059Z,101049.94
2022-09-21T06:16:42.860Z,101039.56
2022-09-21T06:19:13.662Z,101006.78
2022-09-21T06:21:40.923Z,101062.88
2022-09-21T06:24:08.279Z,101062.00
2022-09-21T06:26:35.703Z,101062.00
2022-09-21T06:29:02.796Z,101060.28
2022-09-21T06:31:30.612Z,101060.28
2022-09-21T06:33:58.024Z,101068.06
2022-09-21T06:36:25.186Z,101064.59
2022-09-21T06:38:52.342Z,101011.97
2022-09-21T06:41:21.414Z,101069.81
2022-09-21T06:43:48.842Z,101036.13
2022-09-21T06:46:16.131Z,101075.81
2022-09-21T06:48:43.292Z,101081.88
2022-09-21T06:51:10.572Z,101075.84
2022-09-21T06:53:37.665Z,101018.84
2022-09-21T06:56:09.980Z,101068.94
2022-09-21T06:58:38.191Z,101077.56
2022-09-21T07:01:10.106Z,101084.44
2022-09-21T07:03:38.371Z,101086.19
2022-09-21T07:06:06.585Z,101066.31
2022-09-21T07:11:23.976Z,101093.97
2022-09-21T07:13:51.457Z,101062.03
2022-09-21T07:16:19.988Z,101086.16
2022-09-21T07:18:47.647Z,101041.28
2022-09-21T07:21:15.189Z,101056.81
2022-09-21T07:23:42.350Z,101100.03
2022-09-21T07:26:15.296Z,101100.00
2022-09-21T07:28:42.993Z,101049.88
2022-09-21T07:31:15.785Z,101086.13
2022-09-21T07:33:44.376Z,101093.91
2022-09-21T07:36:13.272Z,101091.25
2022-09-21T07:38:42.652Z,101091.25
2022-09-21T07:41:14.402Z,101094.69
2022-09-21T07:43:42.492Z,101092.91
2022-09-21T07:46:12.248Z,101098.09
2022-09-21T07:48:39.816Z,101090.28
2022-09-21T07:51:09.726Z,101080.75
2022-09-21T07:53:38.203Z,101097.97
2022-09-21T07:56:08.561Z,101102.22
2022-09-21T07:58:54.835Z,101098.69
2022-09-21T08:01:22.040Z,101054.56
2022-09-21T08:03:54.087Z,101095.88
2022-09-21T08:06:22.449Z,101093.94
2022-09-21T08:08:55.132Z,101098.94
2022-09-21T08:11:26.147Z,101091.69
2022-09-21T08:13:56.815Z,101090.53
2022-09-21T08:16:24.280Z,101099.06
2022-09-21T08:18:52.739Z,101053.25
2022-09-21T08:21:20.913Z,101097.91
2022-09-21T08:23:49.501Z,101097.00
2022-09-21T08:26:19.608Z,101093.66
2022-09-21T08:28:51.455Z,101091.94
2022-09-21T08:31:21.264Z,101091.06
2022-09-21T08:33:50.128Z,101084.03
2022-09-21T08:36:18.649Z,101049.31
2022-09-21T08:38:46.388Z,101090.63
2022-09-21T08:41:25.124Z,101087.28
2022-09-21T08:43:58.338Z,101087.38
2022-09-21T08:46:31.136Z,101063.38
2022-09-21T08:49:11.819Z,101089.28
2022-09-21T08:51:48.296Z,101096.25
2022-09-21T08:54:25.669Z,101089.31
2022-09-21T08:57:05.061Z,101094.50
2022-09-21T08:59:34.585Z,101099.75
2022-09-21T09:02:40.731Z,101105.00
2022-09-21T09:05:41.696Z,101105.06
2022-09-21T09:08:19.601Z,101098.09
2022-09-21T09:11:17.438Z,101094.63
2022-09-21T09:14:03.501Z,101103.41
2022-09-21T09:16:42.436Z,101092.94
2022-09-21T09:19:29.070Z,101092.34
2022-09-21T09:21:57.143Z,101089.97
2022-09-21T09:24:41.822Z,101093.25
2022-09-21T09:27:20.383Z,101078.69
2022-09-21T09:29:57.318Z,101096.84
2022-09-21T09:32:34.888Z,101092.41
2022-09-21T09:35:14.116Z,101089.72
2022-09-21T09:37:42.910Z,101091.59
2022-09-21T09:40:13.868Z,101096.97
2022-09-21T09:43:07.412Z,101090.03
2022-09-21T09:45:54.584Z,101087.16
2022-09-21T09:48:24.376Z,101089.41
2022-09-21T09:50:51.409Z,101083.81
2022-09-21T09:53:22.761Z,101080.13
2022-09-21T09:55:52.446Z,101080.56
2022-09-21T09:58:26.045Z,101075.84
2022-09-21T10:00:55.600Z,101079.97
2022-09-21T10:03:25.030Z,101055.38
2022-09-21T10:05:56.484Z,101077.19
2022-09-21T10:08:44.908Z,101058.22
2022-09-21T10:11:14.280Z,101048.88
2022-09-21T10:13:47.850Z,101070.75
2022-09-21T10:16:22.361Z,101078.53
2022-09-21T10:18:59.259Z,101064.81
2022-09-21T10:21:34.740Z,101037.56
2022-09-21T10:24:06.771Z,101071.47
2022-09-21T10:26:54.914Z,101069.63
2022-09-21T10:29:25.783Z,101075.06
2022-09-21T10:32:19.227Z,101066.66
2022-09-21T10:35:05.547Z,101079.19
2022-09-21T10:37:41.498Z,101074.09
2022-09-21T10:40:20.811Z,101086.41
2022-09-21T10:42:56.407Z,101085.59
2022-09-21T10:45:28.919Z,101043.13
2022-09-21T10:48:09.136Z,101068.34
2022-09-21T10:50:50.771Z,101078.25
2022-09-21T10:53:31.132Z,101069.16
2022-09-21T10:56:22.389Z,101069.06
2022-09-21T10:59:11.131Z,101066.03
2022-09-21T11:01:45.002Z,101063.00
2022-09-21T11:04:18.501Z,101044.44
2022-09-21T11:06:51.229Z,101059.25
2022-09-21T11:09:28.976Z,101056.34
2022-09-21T11:12:08.456Z,101062.66
2022-09-21T11:15:11.166Z,101043.03
2022-09-21T11:18:03.145Z,101065.06
2022-09-21T11:20:42.251Z,101065.25
2022-09-21T11:23:32.062Z,101069.38
2022-09-21T11:26:37.714Z,101050.94
2022-09-21T11:32:25.149Z,101042.56
2022-09-21T11:35:12.812Z,101044.25
2022-09-21T11:38:08.926Z,101050.94
2022-09-21T11:40:38.854Z,101058.31
2022-09-21T11:43:50.581Z,101064.06
2022-09-21T11:46:23.476Z,101071.41
2022-09-21T11:49:28.214Z,101075.25
2022-09-21T11:52:11.884Z,101018.84
2022-09-21T11:54:39.463Z,101072.47
2022-09-21T11:57:19.577Z,101067.50
2022-09-21T12:00:02.593Z,101076.31
2022-09-21T12:02:59.780Z,101074.69
2022-09-21T12:06:03.894Z,101080.94
2022-09-21T12:08:42.710Z,101086.34
2022-09-21T12:11:24.958Z,101091.78
2022-09-21T12:14:22.471Z,101106.00
2022-09-21T12:17:16.730Z,101103.66
2022-09-21T12:20:18.032Z,101105.63
2022-09-21T12:22:49.740Z,101109.25
2022-09-21T12:25:45.159Z,101083.41
2022-09-21T12:28:24.943Z,101090.28
2022-09-21T12:31:01.934Z,101040.28
2022-09-21T12:33:34.996Z,101060.97
2022-09-21T12:36:24.530Z,101080.69
2022-09-21T12:39:28.786Z,101072.81
2022-09-21T12:42:34.251Z,101059.81
2022-09-21T12:45:15.427Z,101058.81
2022-09-21T12:47:58.527Z,101067.34
2022-09-21T12:50:45.038Z,101062.09
2022-09-21T12:53:20.531Z,101068.13
2022-09-21T12:56:01.546Z,101069.88
2022-09-21T12:58:44.416Z,101040.56
2022-09-21T13:01:32.982Z,101062.91
2022-09-21T13:04:12.758Z,101069.78
2022-09-21T13:07:11.216Z,101059.28
2022-09-21T13:09:42.597Z,101061.78
2022-09-21T13:12:24.271Z,101059.00
2022-09-21T13:15:04.533Z,101018.44
2022-09-21T13:17:33.854Z,101009.59
2022-09-21T13:20:18.599Z,101038.72
2022-09-21T13:22:49.226Z,101047.25
2022-09-21T13:25:24.986Z,101046.34
2022-09-21T13:28:13.876Z,101048.91
2022-09-21T13:30:50.036Z,101043.78
2022-09-21T13:33:20.153Z,101043.69
2022-09-21T13:36:01.297Z,101040.25
2022-09-21T13:38:54.522Z,101035.91
2022-09-21T13:44:18.522Z,101028.84
2022-09-21T13:46:49.824Z,101021.94
2022-09-21T13:49:20.098Z,101029.78
2022-09-21T13:52:08.812Z,101016.03
2022-09-21T13:54:35.801Z,101035.03
2022-09-21T13:57:25.227Z,101027.19
2022-09-21T14:00:14.128Z,101022.84
2022-09-21T14:02:55.068Z,101029.78
2022-09-21T14:05:38.400Z,101031.59
2022-09-21T14:08:22.550Z,100991.91
2022-09-21T14:11:03.877Z,101029.78
2022-09-21T14:13:44.038Z,101003.97
2022-09-21T14:16:29.669Z,101024.59
2022-09-21T14:18:56.945Z,100996.22
2022-09-21T14:21:24.318Z,100989.31
2022-09-21T14:24:07.710Z,101027.09
2022-09-21T14:26:47.901Z,101028.88
2022-09-21T14:29:27.546Z,100972.94
2022-09-21T14:32:01.752Z,101014.19
2022-09-21T14:34:37.071Z,101009.03
2022-09-21T14:37:29.299Z,101015.06
2022-09-21T14:39:58.776Z,101003.06
2022-09-21T14:42:29.316Z,101012.47
2022-09-21T14:45:01.651Z,101005.50
2022-09-21T14:47:47.838Z,101007.16
2022-09-21T14:50:57.969Z,100990.00
2022-09-21T14:54:12.720Z,101005.50
2022-09-21T14:56:45.650Z,101002.06
2022-09-21T14:59:43.511Z,101005.59
2022-09-21T15:02:18.287Z,101001.25
2022-09-21T15:05:13.198Z,101000.41
2022-09-21T15:08:28.029Z,100999.59
2022-09-21T15:11:19.978Z,100997.06
2022-09-21T15:14:17.596Z,101007.41
2022-09-21T15:16:47.489Z,101007.41
2022-09-21T15:19:28.622Z,101010.88
2022-09-21T15:22:15.656Z,101007.47
2022-09-21T15:24:57.344Z,100998.75
2022-09-21T15:27:27.936Z,101007.47
2022-09-21T15:29:56.851Z,101004.03
2022-09-21T15:32:37.328Z,101003.13
2022-09-21T15:35:16.623Z,100997.19
2022-09-21T15:37:45.880Z,101009.41
2022-09-21T15:40:20.708Z,100990.66
2022-09-21T15:43:04.865Z,101020.97
2022-09-21T15:45:47.206Z,101008.06
2022-09-21T15:48:14.610Z,101020.19
2022-09-21T15:50:44.191Z,101008.06
2022-09-21T15:53:22.276Z,101020.19
2022-09-21T15:55:50.365Z,101029.69
2022-09-21T15:58:27.411Z,101021.91
2022-09-21T16:00:56.441Z,101041.75
2022-09-21T16:03:26.327Z,101043.41
2022-09-21T16:05:57.196Z,101051.25
2022-09-21T16:08:29.135Z,101010.88
2022-09-21T16:11:20.284Z,101053.25
2022-09-21T16:14:06.840Z,101056.00
2022-09-21T16:16:33.988Z,101019.00
2022-09-21T16:19:01.177Z,101057.88
2022-09-21T16:21:32.812Z,101057.09
2022-09-21T16:24:22.566Z,101063.22
2022-09-21T16:27:02.049Z,101060.72
2022-09-21T16:29:42.421Z,101071.22
2022-09-21T16:32:32.422Z,101064.38
2022-09-21T16:35:27.467Z,101073.13
2022-09-21T16:37:57.977Z,101067.13
2022-09-21T16:40:29.353Z,101057.69
2022-09-21T16:42:57.233Z,101064.66
2022-09-21T16:45:31.944Z,101070.69
2022-09-21T16:47:59.855Z,101085.41
2022-09-21T16:50:27.312Z,101061.31
2022-09-21T16:52:54.480Z,101088.13
2022-09-21T16:55:25.556Z,101092.44
2022-09-21T16:57:55.427Z,101022.69
2022-09-21T17:00:22.597Z,101052.84
2022-09-21T17:02:50.068Z,101096.00
2022-09-21T17:05:20.874Z,101096.84
2022-09-21T17:07:59.099Z,101039.06
2022-09-21T17:10:32.225Z,101098.63
2022-09-21T17:12:59.512Z,101102.94
2022-09-21T17:15:28.826Z,101073.66
2022-09-21T17:17:58.299Z,101096.97
2022-09-21T17:20:35.356Z,101092.69
2022-09-21T17:23:03.396Z,101111.66
2022-09-21T17:25:32.988Z,101111.69
2022-09-21T17:28:01.620Z,101110.00
2022-09-21T17:30:29.462Z,101109.13
2022-09-21T17:32:58.624Z,101081.56
2022-09-21T17:35:31.970Z,101112.66
2022-09-21T17:38:00.172Z,101115.22
2022-09-21T17:40:28.107Z,101113.50
2022-09-21T17:43:05.326Z,101113.50
2022-09-21T17:45:50.602Z,101112.69
2022-09-21T17:48:22.577Z,101116.16
2022-09-21T17:50:50.800Z,101120.47
2022-09-21T17:53:43.504Z,101108.38
2022-09-21T17:56:41.200Z,101122.28
2022-09-21T17:59:24.299Z,101130.06
2022-09-21T18:01:52.463Z,101126.59
2022-09-21T18:04:19.902Z,101134.41
2022-09-21T18:06:47.245Z,101124.91
2022-09-21T18:09:14.611Z,101136.16
2022-09-21T18:12:02.398Z,101112.00
2022-09-21T18:14:34.489Z,101133.56
2022-09-21T18:17:35.109Z,101137.91
2022-09-21T18:20:34.576Z,101143.97
2022-09-21T18:23:23.777Z,101141.38
2022-09-21T18:25:56.829Z,101139.63
2022-09-21T18:28:40.639Z,101148.31
2022-09-21T18:31:47.599Z,101146.59
2022-09-21T18:34:35.670Z,101148.34
2022-09-21T18:37:36.994Z,101150.09
2022-09-21T18:40:48.926Z,101155.28
2022-09-21T18:43:39.698Z,101148.41
2022-09-21T18:46:19.129Z,101150.13
2022-09-21T18:49:03.523Z,101112.09
2022-09-21T18:51:42.281Z,101158.75
2022-09-21T18:54:20.042Z,101119.00
2022-09-21T18:56:47.630Z,101147.53
2022-09-21T18:59:16.315Z,101160.53
2022-09-21T19:01:45.057Z,101169.16
2022-09-21T19:04:12.813Z,101140.63
2022-09-21T19:07:00.116Z,101162.22
2022-09-21T19:10:00.269Z,101177.81
2022-09-21T19:13:00.511Z,101150.16
2022-09-21T19:16:01.508Z,101176.06
2022-09-21T19:18:52.688Z,101181.25
2022-09-21T19:21:46.037Z,101155.34
2022-09-21T19:24:41.678Z,101148.41
2022-09-21T19:27:14.457Z,101173.47
2022-09-21T19:30:06.348Z,101181.25
2022-09-21T19:32:48.878Z,101139.75
2022-09-21T19:35:22.136Z,101183.00
2022-09-21T19:37:50.877Z,101183.00
2022-09-21T19:40:20.819Z,101182.13
2022-09-21T19:42:54.072Z,101186.44
2022-09-21T19:45:42.420Z,101186.44
2022-09-21T19:48:13.989Z,101189.91
2022-09-21T19:50:59.499Z,101192.50
2022-09-21T19:53:46.098Z,101195.97
2022-09-21T19:56:35.987Z,101182.13
2022-09-21T19:59:21.935Z,101190.75
2022-09-21T20:01:56.900Z,101195.97
2022-09-21T20:04:46.021Z,101196.81
2022-09-21T20:07:25.241Z,101195.06
2022-09-21T20:10:26.451Z,101189.88
2022-09-21T20:13:12.681Z,101187.28
2022-09-21T20:15:52.454Z,101191.59
2022-09-21T20:18:32.431Z,101195.06
2022-09-21T20:21:00.567Z,101203.72
2022-09-21T20:23:28.086Z,101119.91
2022-09-21T20:26:01.030Z,101160.47
2022-09-21T20:28:28.385Z,101150.97
2022-09-21T20:30:55.835Z,101189.88
2022-09-21T20:33:24.351Z,101201.09
2022-09-21T20:35:55.695Z,101169.13
2022-09-21T20:38:23.385Z,101173.44
2022-09-21T20:40:51.851Z,101143.19
2022-09-21T20:43:19.756Z,101163.06
2022-09-21T20:45:49.549Z,101189.84
2022-09-21T20:48:17.462Z,101193.28
2022-09-21T20:50:50.901Z,101191.56
2022-09-21T20:53:19.638Z,101188.06
2022-09-21T20:55:55.448Z,101182.88
2022-09-21T20:58:22.953Z,101133.59
2022-09-21T21:00:52.261Z,101181.97
2022-09-21T21:03:22.349Z,101186.28
2022-09-21T21:05:49.436Z,101133.56
2022-09-21T21:08:17.040Z,101170.69
2022-09-21T21:10:47.390Z,101179.34
2022-09-21T21:13:14.340Z,101181.88
2022-09-21T21:15:41.748Z,101188.81
2022-09-21T21:18:11.890Z,101170.63
2022-09-21T21:20:39.567Z,101181.88
2022-09-21T21:23:08.332Z,101176.66
2022-09-21T21:25:35.869Z,101186.19
2022-09-21T21:28:03.466Z,101193.06
2022-09-21T21:30:31.620Z,101188.75
2022-09-21T21:32:58.969Z,101172.34
2022-09-21T21:35:26.293Z,101169.72
2022-09-21T21:37:53.588Z,101187.00
2022-09-21T21:40:21.092Z,101191.25
2022-09-21T21:42:48.412Z,101177.34
2022-09-21T21:45:15.555Z,101151.34
2022-09-21T21:47:42.616Z,101191.09
2022-09-21T21:50:10.989Z,101127.00
2022-09-21T21:52:38.442Z,101197.88
2022-09-21T21:55:06.719Z,101185.84
2022-09-21T21:57:33.772Z,101187.56
2022-09-21T22:00:01.008Z,101194.44
2022-09-21T22:02:29.682Z,101195.28
2022-09-21T22:04:56.791Z,101192.69
2022-09-21T22:07:24.051Z,101136.41
2022-09-21T22:09:51.373Z,101062.81
2022-09-21T22:12:18.485Z,101188.31
2022-09-21T22:14:46.638Z,101188.28
2022-09-21T22:17:14.863Z,101164.03
2022-09-21T22:19:42.860Z,101188.19
2022-09-21T22:22:10.088Z,101088.59
2022-09-21T22:24:37.357Z,101188.13
2022-09-21T22:27:04.547Z,101188.09
2022-09-21T22:29:31.923Z,101192.41
2022-09-21T22:31:59.026Z,101193.25
2022-09-21T22:34:26.228Z,101172.50
2022-09-21T22:36:54.016Z,101183.72
2022-09-21T22:39:21.759Z,101185.47
2022-09-21T22:41:48.696Z,101170.78
2022-09-21T22:44:16.130Z,101142.22
2022-09-21T22:46:43.170Z,101176.00
2022-09-21T22:49:10.381Z,101179.50
2022-09-21T22:51:38.371Z,101139.63
2022-09-21T22:54:05.751Z,101158.69
2022-09-21T22:56:34.289Z,101175.94
2022-09-21T22:59:03.047Z,101178.50
2022-09-21T23:01:31.767Z,101175.88
2022-09-21T23:04:07.028Z,101174.13
2022-09-21T23:06:36.805Z,101181.84
2022-09-21T23:09:07.992Z,101102.25
2022-09-21T23:11:42.961Z,101176.69
2022-09-21T23:14:11.965Z,101170.66
2022-09-21T23:16:39.218Z,101110.91
2022-09-21T23:19:07.623Z,101135.97
2022-09-21T23:21:35.027Z,101174.94
2022-09-21T23:24:03.268Z,101180.13
2022-09-21T23:26:32.353Z,101181.84
2022-09-21T23:29:02.237Z,101178.34
2022-09-21T23:31:31.792Z,101169.69
2022-09-21T23:34:03.185Z,101176.59
2022-09-21T23:36:31.536Z,101122.91
2022-09-21T23:38:59.141Z,101177.41
2022-09-21T23:41:28.714Z,101171.31
2022-09-21T23:43:56.882Z,101167.75
2022-09-21T23:46:29.167Z,101168.56
2022-09-21T23:48:57.657Z,101172.69
2022-09-21T23:51:25.779Z,101173.53
2022-09-21T23:53:53.523Z,101165.66
2022-09-21T23:56:22.688Z,101169.09
2022-09-21T23:58:50.601Z,101179.34
